sensor_id;sensor_type;location;lat;lon;timestamp;P1;durP1;ratioP1;P2;durP2;ratioP2
68951;SDS011;56000;51.146;17.112;2022-11-14T11:21:02;38.30;;;23.80;;
68951;SDS011;56000;51.146;17.112;2022-11-14T11:23:56;37.80;;;24.00;;
68951;SDS011;56000;51.146;17.112;2022-11-14T11:26:48;36.00;;;24.20;;
68951;SDS011;56000;51.146;17.112;2022-11-14T11:30:15;38.00;;;24.20;;
68951;SDS011;56000;51.146;17.112;2022-11-14T11:33:21;35.70;;;22.00;;
68951;SDS011;56000;51.146;17.112;2022-11-14T11:36:16;38.20;;;22.40;;
68951;SDS011;56000;51.146;17.112;2022-11-14T11:39:10;41.20;;;24.00;;
68951;SDS011;56000;51.146;17.112;2022-11-14T11:42:13;38.10;;;23.90;;
68951;SDS011;56000;51.146;17.112;2022-11-14T11:45:11;43.70;;;24.30;;
68951;SDS011;56000;51.146;17.112;2022-11-14T11:48:09;38.00;;;22.80;;
68951;SDS011;56000;51.146;17.112;2022-11-14T11:51:09;42.90;;;24.80;;
68951;SDS011;56000;51.146;17.112;2022-11-14T11:54:09;44.80;;;25.10;;
68951;SDS011;56000;51.146;17.112;2022-11-14T11:57:11;38.40;;;23.80;;
68951;SDS011;56000;51.146;17.112;2022-11-14T12:00:15;40.60;;;21.90;;
68951;SDS011;56000;51.146;17.112;2022-11-14T12:03:12;35.60;;;20.60;;
68951;SDS011;56000;51.146;17.112;2022-11-14T12:06:12;35.90;;;21.40;;
68951;SDS011;56000;51.146;17.112;2022-11-14T12:09:17;36.30;;;19.90;;
68951;SDS011;56000;51.146;17.112;2022-11-14T12:12:27;35.40;;;22.60;;
68951;SDS011;56000;51.146;17.112;2022-11-14T12:15:41;35.80;;;15.20;;
68951;SDS011;56000;51.146;17.112;2022-11-14T12:19:05;35.90;;;21.10;;
68951;SDS011;56000;51.146;17.112;2022-11-14T12:22:30;34.80;;;20.20;;
68951;SDS011;56000;51.146;17.112;2022-11-14T12:25:42;34.40;;;21.10;;
68951;SDS011;56000;51.146;17.112;2022-11-14T12:28:54;38.20;;;22.00;;
68951;SDS011;56000;51.146;17.112;2022-11-14T12:32:18;30.20;;;19.40;;
68951;SDS011;56000;51.146;17.112;2022-11-14T12:35:21;36.20;;;22.40;;
68951;SDS011;56000;51.146;17.112;2022-11-14T12:38:15;34.40;;;21.00;;
68951;SDS011;56000;51.146;17.112;2022-11-14T12:41:08;38.60;;;21.50;;
68951;SDS011;56000;51.146;17.112;2022-11-14T12:44:30;36.20;;;20.70;;
68951;SDS011;56000;51.146;17.112;2022-11-14T12:47:26;37.50;;;21.40;;
68951;SDS011;56000;51.146;17.112;2022-11-14T12:50:38;44.60;;;24.80;;
68951;SDS011;56000;51.146;17.112;2022-11-14T12:53:43;36.40;;;22.60;;
68951;SDS011;56000;51.146;17.112;2022-11-14T12:56:51;34.60;;;21.10;;
68951;SDS011;56000;51.146;17.112;2022-11-14T12:59:52;38.60;;;21.20;;
68951;SDS011;56000;51.146;17.112;2022-11-14T13:06:21;31.30;;;19.40;;
68951;SDS011;56000;51.146;17.112;2022-11-14T13:09:25;32.00;;;18.60;;
68951;SDS011;56000;51.146;17.112;2022-11-14T13:12:28;33.60;;;21.20;;
68951;SDS011;56000;51.146;17.112;2022-11-14T13:15:47;37.00;;;19.70;;
68951;SDS011;56000;51.146;17.112;2022-11-14T13:19:00;35.80;;;18.50;;
68951;SDS011;56000;51.146;17.112;2022-11-14T13:25:28;30.20;;;17.70;;
68951;SDS011;56000;51.146;17.112;2022-11-14T13:28:48;29.90;;;18.90;;
68951;SDS011;56000;51.146;17.112;2022-11-14T13:31:50;30.20;;;18.60;;
68951;SDS011;56000;51.146;17.112;2022-11-14T13:34:48;34.00;;;19.90;;
68951;SDS011;56000;51.146;17.112;2022-11-14T13:38:03;34.10;;;19.90;;
68951;SDS011;56000;51.146;17.112;2022-11-14T13:41:13;37.40;;;20.40;;
68951;SDS011;56000;51.146;17.112;2022-11-14T13:45:15;35.40;;;21.10;;
68951;SDS011;56000;51.146;17.112;2022-11-14T13:51:51;33.80;;;18.40;;
68951;SDS011;56000;51.146;17.112;2022-11-14T13:54:47;34.20;;;20.60;;
68951;SDS011;56000;51.146;17.112;2022-11-14T13:57:43;75.70;;;40.30;;
68951;SDS011;56000;51.146;17.112;2022-11-14T14:00:55;58.60;;;33.20;;
68951;SDS011;56000;51.146;17.112;2022-11-14T14:04:16;115.40;;;56.10;;
68951;SDS011;56000;51.146;17.112;2022-11-14T14:07:20;62.10;;;33.20;;
68951;SDS011;56000;51.146;17.112;2022-11-14T14:10:25;68.10;;;37.10;;
68951;SDS011;56000;51.146;17.112;2022-11-14T14:13:36;57.10;;;32.20;;
68951;SDS011;56000;51.146;17.112;2022-11-14T14:16:47;39.40;;;24.90;;
68951;SDS011;56000;51.146;17.112;2022-11-14T14:19:50;31.80;;;19.20;;
68951;SDS011;56000;51.146;17.112;2022-11-14T14:22:55;29.30;;;17.50;;
68951;SDS011;56000;51.146;17.112;2022-11-14T14:25:58;27.90;;;17.30;;
68951;SDS011;56000;51.146;17.112;2022-11-14T14:28:56;34.10;;;18.30;;
68951;SDS011;56000;51.146;17.112;2022-11-14T14:31:53;27.90;;;18.20;;
68951;SDS011;56000;51.146;17.112;2022-11-14T14:34:58;33.80;;;18.20;;
68951;SDS011;56000;51.146;17.112;2022-11-14T14:38:02;27.80;;;16.80;;
68951;SDS011;56000;51.146;17.112;2022-11-14T14:41:05;39.80;;;20.60;;
68951;SDS011;56000;51.146;17.112;2022-11-14T14:43:57;44.80;;;21.70;;
68951;SDS011;56000;51.146;17.112;2022-11-14T14:46:49;40.80;;;22.90;;
68951;SDS011;56000;51.146;17.112;2022-11-14T14:49:41;45.20;;;25.30;;
68951;SDS011;56000;51.146;17.112;2022-11-14T14:52:34;46.50;;;23.10;;
68951;SDS011;56000;51.146;17.112;2022-11-14T14:55:27;51.20;;;26.40;;
68951;SDS011;56000;51.146;17.112;2022-11-14T14:58:26;45.90;;;25.60;;
68951;SDS011;56000;51.146;17.112;2022-11-14T15:01:19;43.40;;;22.90;;
68951;SDS011;56000;51.146;17.112;2022-11-14T15:04:14;39.80;;;23.40;;
68951;SDS011;56000;51.146;17.112;2022-11-14T15:07:18;40.60;;;22.20;;
68951;SDS011;56000;51.146;17.112;2022-11-14T15:10:20;41.40;;;22.10;;
68951;SDS011;56000;51.146;17.112;2022-11-14T15:13:14;45.00;;;24.50;;
68951;SDS011;56000;51.146;17.112;2022-11-14T15:16:08;43.40;;;25.20;;
68951;SDS011;56000;51.146;17.112;2022-11-14T15:19:00;48.90;;;25.70;;
68951;SDS011;56000;51.146;17.112;2022-11-14T15:22:17;52.50;;;26.50;;
68951;SDS011;56000;51.146;17.112;2022-11-14T15:25:19;45.50;;;24.90;;
68951;SDS011;56000;51.146;17.112;2022-11-14T15:28:18;51.10;;;25.20;;
68951;SDS011;56000;51.146;17.112;2022-11-14T15:31:17;50.30;;;27.10;;
68951;SDS011;56000;51.146;17.112;2022-11-14T15:34:23;45.20;;;26.00;;
68951;SDS011;56000;51.146;17.112;2022-11-14T15:37:23;46.40;;;21.90;;
68951;SDS011;56000;51.146;17.112;2022-11-14T15:40:19;38.60;;;20.10;;
68951;SDS011;56000;51.146;17.112;2022-11-14T15:43:44;40.90;;;22.60;;
68951;SDS011;56000;51.146;17.112;2022-11-14T15:46:40;36.10;;;20.80;;
68951;SDS011;56000;51.146;17.112;2022-11-14T15:49:34;36.40;;;19.90;;
68951;SDS011;56000;51.146;17.112;2022-11-14T15:52:27;31.60;;;19.60;;
68951;SDS011;56000;51.146;17.112;2022-11-14T15:55:23;36.50;;;20.40;;
68951;SDS011;56000;51.146;17.112;2022-11-14T15:58:15;37.30;;;20.00;;
68951;SDS011;56000;51.146;17.112;2022-11-14T16:04:11;39.00;;;19.50;;
68951;SDS011;56000;51.146;17.112;2022-11-14T16:07:05;36.10;;;19.60;;
68951;SDS011;56000;51.146;17.112;2022-11-14T16:09:59;34.20;;;20.90;;
68951;SDS011;56000;51.146;17.112;2022-11-14T16:12:50;33.10;;;19.10;;
68951;SDS011;56000;51.146;17.112;2022-11-14T16:15:41;32.40;;;19.60;;
68951;SDS011;56000;51.146;17.112;2022-11-14T16:18:32;36.30;;;19.20;;
68951;SDS011;56000;51.146;17.112;2022-11-14T16:21:23;24.90;;;16.20;;
68951;SDS011;56000;51.146;17.112;2022-11-14T16:24:19;32.20;;;18.50;;
68951;SDS011;56000;51.146;17.112;2022-11-14T16:27:15;33.60;;;18.90;;
68951;SDS011;56000;51.146;17.112;2022-11-14T16:30:08;35.60;;;20.80;;
68951;SDS011;56000;51.146;17.112;2022-11-14T16:33:01;42.70;;;24.50;;
68951;SDS011;56000;51.146;17.112;2022-11-14T16:35:51;44.40;;;23.90;;
68951;SDS011;56000;51.146;17.112;2022-11-14T16:38:42;49.40;;;25.40;;
68951;SDS011;56000;51.146;17.112;2022-11-14T16:41:39;40.90;;;21.90;;
68951;SDS011;56000;51.146;17.112;2022-11-14T16:44:30;40.70;;;21.90;;
68951;SDS011;56000;51.146;17.112;2022-11-14T16:47:30;44.30;;;23.90;;
68951;SDS011;56000;51.146;17.112;2022-11-14T16:50:21;45.90;;;23.80;;
68951;SDS011;56000;51.146;17.112;2022-11-14T16:53:12;47.40;;;23.50;;
68951;SDS011;56000;51.146;17.112;2022-11-14T16:56:04;47.10;;;23.60;;
68951;SDS011;56000;51.146;17.112;2022-11-14T16:58:58;36.50;;;19.40;;
68951;SDS011;56000;51.146;17.112;2022-11-14T17:01:49;41.60;;;23.00;;
68951;SDS011;56000;51.146;17.112;2022-11-14T17:04:41;38.50;;;20.50;;
68951;SDS011;56000;51.146;17.112;2022-11-14T17:07:33;39.30;;;21.70;;
68951;SDS011;56000;51.146;17.112;2022-11-14T17:10:24;36.50;;;19.50;;
68951;SDS011;56000;51.146;17.112;2022-11-14T17:13:16;43.60;;;20.00;;
68951;SDS011;56000;51.146;17.112;2022-11-14T17:16:11;35.20;;;20.40;;
68951;SDS011;56000;51.146;17.112;2022-11-14T17:19:02;34.70;;;20.70;;
68951;SDS011;56000;51.146;17.112;2022-11-14T17:21:54;36.50;;;21.30;;
68951;SDS011;56000;51.146;17.112;2022-11-14T17:24:46;43.30;;;22.20;;
68951;SDS011;56000;51.146;17.112;2022-11-14T17:27:37;41.90;;;22.60;;
68951;SDS011;56000;51.146;17.112;2022-11-14T17:30:28;33.80;;;20.30;;
68951;SDS011;56000;51.146;17.112;2022-11-14T17:33:19;49.20;;;24.90;;
68951;SDS011;56000;51.146;17.112;2022-11-14T17:36:11;46.50;;;25.00;;
68951;SDS011;56000;51.146;17.112;2022-11-14T17:39:03;42.90;;;23.90;;
68951;SDS011;56000;51.146;17.112;2022-11-14T17:41:54;26.10;;;15.50;;
68951;SDS011;56000;51.146;17.112;2022-11-14T17:44:45;36.60;;;20.50;;
68951;SDS011;56000;51.146;17.112;2022-11-14T17:47:36;67.20;;;35.90;;
68951;SDS011;56000;51.146;17.112;2022-11-14T17:50:27;58.10;;;29.20;;
68951;SDS011;56000;51.146;17.112;2022-11-14T17:53:24;71.50;;;31.40;;
68951;SDS011;56000;51.146;17.112;2022-11-14T17:56:17;78.60;;;29.10;;
68951;SDS011;56000;51.146;17.112;2022-11-14T17:59:09;104.30;;;37.00;;
68951;SDS011;56000;51.146;17.112;2022-11-14T18:02:00;109.50;;;39.40;;
68951;SDS011;56000;51.146;17.112;2022-11-14T18:04:51;73.40;;;28.90;;
68951;SDS011;56000;51.146;17.112;2022-11-14T18:07:42;52.70;;;24.40;;
68951;SDS011;56000;51.146;17.112;2022-11-14T18:10:33;45.20;;;24.10;;
68951;SDS011;56000;51.146;17.112;2022-11-14T18:13:25;52.20;;;24.40;;
68951;SDS011;56000;51.146;17.112;2022-11-14T18:16:18;64.70;;;29.70;;
68951;SDS011;56000;51.146;17.112;2022-11-14T18:19:22;71.00;;;32.30;;
68951;SDS011;56000;51.146;17.112;2022-11-14T18:22:13;63.10;;;27.00;;
68951;SDS011;56000;51.146;17.112;2022-11-14T18:25:05;57.80;;;27.00;;
68951;SDS011;56000;51.146;17.112;2022-11-14T18:27:57;57.40;;;28.90;;
68951;SDS011;56000;51.146;17.112;2022-11-14T18:30:54;59.00;;;30.00;;
68951;SDS011;56000;51.146;17.112;2022-11-14T18:33:45;56.10;;;28.10;;
68951;SDS011;56000;51.146;17.112;2022-11-14T18:36:37;49.70;;;26.50;;
68951;SDS011;56000;51.146;17.112;2022-11-14T18:39:27;50.50;;;25.00;;
68951;SDS011;56000;51.146;17.112;2022-11-14T18:42:18;52.50;;;25.10;;
68951;SDS011;56000;51.146;17.112;2022-11-14T18:45:10;53.00;;;26.80;;
68951;SDS011;56000;51.146;17.112;2022-11-14T18:48:02;52.70;;;27.20;;
68951;SDS011;56000;51.146;17.112;2022-11-14T18:50:53;49.80;;;24.70;;
68951;SDS011;56000;51.146;17.112;2022-11-14T18:53:50;60.00;;;29.40;;
68951;SDS011;56000;51.146;17.112;2022-11-14T18:56:42;57.90;;;27.40;;
68951;SDS011;56000;51.146;17.112;2022-11-14T18:59:33;53.00;;;25.70;;
68951;SDS011;56000;51.146;17.112;2022-11-14T19:02:24;62.50;;;30.60;;
68951;SDS011;56000;51.146;17.112;2022-11-14T19:05:16;62.10;;;29.40;;
68951;SDS011;56000;51.146;17.112;2022-11-14T19:08:07;58.80;;;30.80;;
68951;SDS011;56000;51.146;17.112;2022-11-14T19:11:01;64.80;;;33.00;;
68951;SDS011;56000;51.146;17.112;2022-11-14T19:13:54;61.80;;;32.70;;
68951;SDS011;56000;51.146;17.112;2022-11-14T19:16:45;56.30;;;30.30;;
68951;SDS011;56000;51.146;17.112;2022-11-14T19:19:37;53.60;;;28.60;;
68951;SDS011;56000;51.146;17.112;2022-11-14T19:22:27;60.90;;;28.50;;
68951;SDS011;56000;51.146;17.112;2022-11-14T19:25:19;48.50;;;25.30;;
68951;SDS011;56000;51.146;17.112;2022-11-14T19:28:10;52.60;;;28.70;;
68951;SDS011;56000;51.146;17.112;2022-11-14T19:31:05;40.70;;;21.50;;
68951;SDS011;56000;51.146;17.112;2022-11-14T19:33:56;43.50;;;23.00;;
68951;SDS011;56000;51.146;17.112;2022-11-14T19:36:47;47.40;;;23.20;;
68951;SDS011;56000;51.146;17.112;2022-11-14T19:39:48;51.90;;;26.60;;
68951;SDS011;56000;51.146;17.112;2022-11-14T19:42:42;54.70;;;28.90;;
68951;SDS011;56000;51.146;17.112;2022-11-14T19:45:35;48.90;;;26.00;;
68951;SDS011;56000;51.146;17.112;2022-11-14T19:48:25;58.50;;;28.60;;
68951;SDS011;56000;51.146;17.112;2022-11-14T19:51:17;58.90;;;29.00;;
68951;SDS011;56000;51.146;17.112;2022-11-14T19:54:10;61.00;;;29.60;;
68951;SDS011;56000;51.146;17.112;2022-11-14T19:57:01;63.20;;;32.60;;
68951;SDS011;56000;51.146;17.112;2022-11-14T19:59:53;69.00;;;36.00;;
68951;SDS011;56000;51.146;17.112;2022-11-14T20:02:45;69.60;;;37.30;;
68951;SDS011;56000;51.146;17.112;2022-11-14T20:05:36;74.60;;;39.10;;
68951;SDS011;56000;51.146;17.112;2022-11-14T20:08:27;84.20;;;39.70;;
68951;SDS011;56000;51.146;17.112;2022-11-14T20:11:19;63.40;;;35.40;;
68951;SDS011;56000;51.146;17.112;2022-11-14T20:14:11;69.40;;;37.40;;
68951;SDS011;56000;51.146;17.112;2022-11-14T20:17:02;67.40;;;33.50;;
68951;SDS011;56000;51.146;17.112;2022-11-14T20:19:53;72.00;;;40.20;;
68951;SDS011;56000;51.146;17.112;2022-11-14T20:22:44;75.70;;;40.20;;
68951;SDS011;56000;51.146;17.112;2022-11-14T20:25:36;67.20;;;36.20;;
68951;SDS011;56000;51.146;17.112;2022-11-14T20:28:28;76.70;;;36.20;;
68951;SDS011;56000;51.146;17.112;2022-11-14T20:31:20;72.10;;;35.00;;
68951;SDS011;56000;51.146;17.112;2022-11-14T20:34:13;68.50;;;34.40;;
68951;SDS011;56000;51.146;17.112;2022-11-14T20:37:04;71.70;;;37.00;;
68951;SDS011;56000;51.146;17.112;2022-11-14T20:39:58;66.00;;;34.20;;
68951;SDS011;56000;51.146;17.112;2022-11-14T20:42:49;69.10;;;34.70;;
68951;SDS011;56000;51.146;17.112;2022-11-14T20:45:40;68.10;;;34.00;;
68951;SDS011;56000;51.146;17.112;2022-11-14T20:48:42;61.60;;;32.10;;
68951;SDS011;56000;51.146;17.112;2022-11-14T20:51:34;59.20;;;32.00;;
68951;SDS011;56000;51.146;17.112;2022-11-14T20:54:25;60.00;;;32.10;;
68951;SDS011;56000;51.146;17.112;2022-11-14T20:57:16;64.30;;;32.20;;
68951;SDS011;56000;51.146;17.112;2022-11-14T21:00:08;60.30;;;30.70;;
68951;SDS011;56000;51.146;17.112;2022-11-14T21:03:00;64.30;;;31.70;;
68951;SDS011;56000;51.146;17.112;2022-11-14T21:05:51;53.30;;;25.70;;
68951;SDS011;56000;51.146;17.112;2022-11-14T21:08:43;59.60;;;29.60;;
68951;SDS011;56000;51.146;17.112;2022-11-14T21:11:34;58.70;;;29.20;;
68951;SDS011;56000;51.146;17.112;2022-11-14T21:14:25;65.70;;;30.20;;
68951;SDS011;56000;51.146;17.112;2022-11-14T21:17:16;51.60;;;26.70;;
68951;SDS011;56000;51.146;17.112;2022-11-14T21:20:09;59.80;;;30.60;;
68951;SDS011;56000;51.146;17.112;2022-11-14T21:23:00;60.90;;;29.10;;
68951;SDS011;56000;51.146;17.112;2022-11-14T21:25:51;58.80;;;30.50;;
68951;SDS011;56000;51.146;17.112;2022-11-14T21:28:50;59.40;;;31.00;;
68951;SDS011;56000;51.146;17.112;2022-11-14T21:31:44;54.70;;;29.60;;
68951;SDS011;56000;51.146;17.112;2022-11-14T21:34:35;55.90;;;27.40;;
68951;SDS011;56000;51.146;17.112;2022-11-14T21:37:26;48.00;;;22.80;;
68951;SDS011;56000;51.146;17.112;2022-11-14T21:40:17;62.10;;;31.10;;
68951;SDS011;56000;51.146;17.112;2022-11-14T21:43:08;64.80;;;31.50;;
68951;SDS011;56000;51.146;17.112;2022-11-14T21:46:00;68.00;;;35.00;;
68951;SDS011;56000;51.146;17.112;2022-11-14T21:48:53;77.80;;;36.50;;
68951;SDS011;56000;51.146;17.112;2022-11-14T21:51:45;58.00;;;31.40;;
68951;SDS011;56000;51.146;17.112;2022-11-14T21:54:36;59.30;;;32.50;;
68951;SDS011;56000;51.146;17.112;2022-11-14T21:57:27;51.40;;;26.60;;
68951;SDS011;56000;51.146;17.112;2022-11-14T22:00:18;53.70;;;28.10;;
68951;SDS011;56000;51.146;17.112;2022-11-14T22:03:14;82.40;;;38.30;;
68951;SDS011;56000;51.146;17.112;2022-11-14T22:06:24;64.70;;;30.60;;
68951;SDS011;56000;51.146;17.112;2022-11-14T22:09:16;52.20;;;26.60;;
68951;SDS011;56000;51.146;17.112;2022-11-14T22:12:07;70.40;;;34.60;;
68951;SDS011;56000;51.146;17.112;2022-11-14T22:14:58;74.30;;;34.60;;
68951;SDS011;56000;51.146;17.112;2022-11-14T22:17:49;58.20;;;28.80;;
68951;SDS011;56000;51.146;17.112;2022-11-14T22:20:42;55.70;;;28.00;;
68951;SDS011;56000;51.146;17.112;2022-11-14T22:23:33;61.40;;;32.00;;
68951;SDS011;56000;51.146;17.112;2022-11-14T22:26:24;58.10;;;29.60;;
68951;SDS011;56000;51.146;17.112;2022-11-14T22:29:15;58.00;;;27.80;;
68951;SDS011;56000;51.146;17.112;2022-11-14T22:32:06;54.50;;;27.40;;
68951;SDS011;56000;51.146;17.112;2022-11-14T22:34:57;58.20;;;28.30;;
68951;SDS011;56000;51.146;17.112;2022-11-14T22:37:48;62.70;;;31.70;;
68951;SDS011;56000;51.146;17.112;2022-11-14T22:40:39;55.00;;;28.00;;
68951;SDS011;56000;51.146;17.112;2022-11-14T22:43:31;58.10;;;29.30;;
68951;SDS011;56000;51.146;17.112;2022-11-14T22:46:22;69.10;;;31.40;;
68951;SDS011;56000;51.146;17.112;2022-11-14T22:49:14;58.10;;;28.90;;
68951;SDS011;56000;51.146;17.112;2022-11-14T22:52:08;53.20;;;25.90;;
68951;SDS011;56000;51.146;17.112;2022-11-14T22:54:59;60.80;;;30.00;;
68951;SDS011;56000;51.146;17.112;2022-11-14T22:57:50;62.40;;;30.40;;
68951;SDS011;56000;51.146;17.112;2022-11-14T23:00:41;64.90;;;31.90;;
68951;SDS011;56000;51.146;17.112;2022-11-14T23:03:32;55.90;;;29.30;;
68951;SDS011;56000;51.146;17.112;2022-11-14T23:06:24;57.00;;;28.80;;
68951;SDS011;56000;51.146;17.112;2022-11-14T23:09:15;60.00;;;29.20;;
68951;SDS011;56000;51.146;17.112;2022-11-14T23:12:07;57.40;;;27.30;;
68951;SDS011;56000;51.146;17.112;2022-11-14T23:14:58;65.20;;;31.50;;
68951;SDS011;56000;51.146;17.112;2022-11-14T23:17:49;67.90;;;33.20;;
68951;SDS011;56000;51.146;17.112;2022-11-14T23:20:40;67.80;;;31.30;;
68951;SDS011;56000;51.146;17.112;2022-11-14T23:23:31;62.70;;;30.90;;
68951;SDS011;56000;51.146;17.112;2022-11-14T23:26:23;82.70;;;39.50;;
68951;SDS011;56000;51.146;17.112;2022-11-14T23:29:16;86.50;;;41.90;;
68951;SDS011;56000;51.146;17.112;2022-11-14T23:32:07;78.90;;;38.70;;
68951;SDS011;56000;51.146;17.112;2022-11-14T23:34:58;54.20;;;29.50;;
68951;SDS011;56000;51.146;17.112;2022-11-14T23:37:50;70.90;;;35.50;;
68951;SDS011;56000;51.146;17.112;2022-11-14T23:40:41;71.50;;;34.50;;
68951;SDS011;56000;51.146;17.112;2022-11-14T23:43:32;70.00;;;33.30;;
68951;SDS011;56000;51.146;17.112;2022-11-14T23:46:23;71.00;;;35.00;;
68951;SDS011;56000;51.146;17.112;2022-11-14T23:49:14;82.00;;;42.00;;
68951;SDS011;56000;51.146;17.112;2022-11-14T23:52:05;71.20;;;36.80;;
68951;SDS011;56000;51.146;17.112;2022-11-14T23:54:56;91.30;;;43.30;;
68951;SDS011;56000;51.146;17.112;2022-11-14T23:57:49;56.40;;;29.60;;
